Oakley, Michigan
Current Conditions -  °F | °C
As of 2:35 PM on Monday 22 Dec 2014 (Local Time) from KRNP Reporting Station
Broken Clouds Broken Clouds  
Wind Chill: 33°   Ceiling: 10000
Heat Index: 38°   Visibility: 10mi
Dew Point: 28°   Wind: 7mph
Humidity: 67%   Direction: 120°ESE
Pressure: 29.94"   Gusts: NA
Location:  43.14°N, 84.17°W
Report Text: KRNP 221935Z AUTO 12006KT 10SM BKN100 04/M02 A2994 RMK AO2 T00361021
Loading
Personal Weather Stations






























Interactive Weather Map New forecast layout! Learn more

10-Day Weather Forecast

Advertisements
Track Severe Weather on mobile